sensor_id;sensor_type;location;lat;lon;timestamp;P1;durP1;ratioP1;P2;durP2;ratioP2
20559;SDS011;10438;51.454;6.718;2023-04-01T00:01:24;7.20;;;2.00;;
20559;SDS011;10438;51.454;6.718;2023-04-01T00:03:50;10.57;;;2.23;;
20559;SDS011;10438;51.454;6.718;2023-04-01T00:06:17;9.50;;;2.30;;
20559;SDS011;10438;51.454;6.718;2023-04-01T00:08:43;11.10;;;2.40;;
20559;SDS011;10438;51.454;6.718;2023-04-01T00:11:09;11.77;;;2.53;;
20559;SDS011;10438;51.454;6.718;2023-04-01T00:13:35;9.13;;;2.07;;
20559;SDS011;10438;51.454;6.718;2023-04-01T00:16:01;6.70;;;1.70;;
20559;SDS011;10438;51.454;6.718;2023-04-01T00:18:27;9.83;;;1.87;;
20559;SDS011;10438;51.454;6.718;2023-04-01T00:20:53;7.17;;;2.10;;
20559;SDS011;10438;51.454;6.718;2023-04-01T00:23:19;7.33;;;1.40;;
20559;SDS011;10438;51.454;6.718;2023-04-01T00:25:45;5.30;;;1.87;;
20559;SDS011;10438;51.454;6.718;2023-04-01T00:28:12;8.47;;;2.33;;
20559;SDS011;10438;51.454;6.718;2023-04-01T00:30:42;5.87;;;1.83;;
20559;SDS011;10438;51.454;6.718;2023-04-01T00:33:08;7.70;;;1.60;;
20559;SDS011;10438;51.454;6.718;2023-04-01T00:35:33;4.77;;;1.20;;
20559;SDS011;10438;51.454;6.718;2023-04-01T00:37:59;5.37;;;1.70;;
20559;SDS011;10438;51.454;6.718;2023-04-01T00:40:33;6.57;;;1.80;;
20559;SDS011;10438;51.454;6.718;2023-04-01T00:43:03;7.07;;;1.70;;
20559;SDS011;10438;51.454;6.718;2023-04-01T00:45:40;6.77;;;1.50;;
20559;SDS011;10438;51.454;6.718;2023-04-01T00:48:09;6.60;;;2.00;;
20559;SDS011;10438;51.454;6.718;2023-04-01T00:50:38;6.13;;;2.07;;
20559;SDS011;10438;51.454;6.718;2023-04-01T00:53:06;6.67;;;2.00;;
20559;SDS011;10438;51.454;6.718;2023-04-01T00:55:34;5.67;;;1.80;;
20559;SDS011;10438;51.454;6.718;2023-04-01T00:58:03;5.93;;;2.00;;
20559;SDS011;10438;51.454;6.718;2023-04-01T01:00:33;10.60;;;2.40;;
20559;SDS011;10438;51.454;6.718;2023-04-01T01:03:00;7.90;;;2.07;;
20559;SDS011;10438;51.454;6.718;2023-04-01T01:05:38;6.83;;;1.73;;
20559;SDS011;10438;51.454;6.718;2023-04-01T01:08:27;5.50;;;1.20;;
20559;SDS011;10438;51.454;6.718;2023-04-01T01:11:17;6.23;;;1.70;;
20559;SDS011;10438;51.454;6.718;2023-04-01T01:14:00;8.53;;;1.87;;
20559;SDS011;10438;51.454;6.718;2023-04-01T01:16:36;11.53;;;3.33;;
20559;SDS011;10438;51.454;6.718;2023-04-01T01:24:52;14.73;;;4.67;;
20559;SDS011;10438;51.454;6.718;2023-04-01T01:27:27;11.17;;;5.10;;
20559;SDS011;10438;51.454;6.718;2023-04-01T01:35:27;11.77;;;4.33;;
20559;SDS011;10438;51.454;6.718;2023-04-01T01:38:04;6.57;;;2.00;;
20559;SDS011;10438;51.454;6.718;2023-04-01T01:40:36;11.93;;;3.53;;
20559;SDS011;10438;51.454;6.718;2023-04-01T01:43:06;9.97;;;3.33;;
20559;SDS011;10438;51.454;6.718;2023-04-01T01:45:36;6.10;;;1.93;;
20559;SDS011;10438;51.454;6.718;2023-04-01T01:48:08;7.93;;;2.70;;
20559;SDS011;10438;51.454;6.718;2023-04-01T01:50:35;10.77;;;3.30;;
20559;SDS011;10438;51.454;6.718;2023-04-01T01:53:05;9.30;;;3.37;;
20559;SDS011;10438;51.454;6.718;2023-04-01T01:55:33;12.10;;;3.80;;
20559;SDS011;10438;51.454;6.718;2023-04-01T01:58:11;11.00;;;3.80;;
20559;SDS011;10438;51.454;6.718;2023-04-01T02:00:46;16.57;;;5.90;;
20559;SDS011;10438;51.454;6.718;2023-04-01T02:03:17;8.77;;;2.10;;
20559;SDS011;10438;51.454;6.718;2023-04-01T02:05:46;20.37;;;7.27;;
20559;SDS011;10438;51.454;6.718;2023-04-01T02:08:16;10.93;;;4.07;;
20559;SDS011;10438;51.454;6.718;2023-04-01T02:10:56;20.47;;;7.23;;
20559;SDS011;10438;51.454;6.718;2023-04-01T02:13:35;34.83;;;10.83;;
20559;SDS011;10438;51.454;6.718;2023-04-01T02:16:11;29.60;;;11.50;;
20559;SDS011;10438;51.454;6.718;2023-04-01T02:18:43;17.87;;;6.17;;
20559;SDS011;10438;51.454;6.718;2023-04-01T02:21:12;20.90;;;6.60;;
20559;SDS011;10438;51.454;6.718;2023-04-01T02:23:39;9.40;;;2.43;;
20559;SDS011;10438;51.454;6.718;2023-04-01T02:26:06;17.33;;;6.70;;
20559;SDS011;10438;51.454;6.718;2023-04-01T02:28:34;21.47;;;8.03;;
20559;SDS011;10438;51.454;6.718;2023-04-01T02:31:03;28.10;;;10.43;;
20559;SDS011;10438;51.454;6.718;2023-04-01T02:33:29;30.20;;;11.57;;
20559;SDS011;10438;51.454;6.718;2023-04-01T02:35:56;24.87;;;9.07;;
20559;SDS011;10438;51.454;6.718;2023-04-01T02:38:22;23.03;;;9.50;;
20559;SDS011;10438;51.454;6.718;2023-04-01T02:40:50;13.97;;;4.57;;
20559;SDS011;10438;51.454;6.718;2023-04-01T02:43:20;26.10;;;8.20;;
20559;SDS011;10438;51.454;6.718;2023-04-01T02:45:46;14.70;;;4.87;;
20559;SDS011;10438;51.454;6.718;2023-04-01T02:48:12;15.90;;;5.33;;
20559;SDS011;10438;51.454;6.718;2023-04-01T02:50:38;23.73;;;8.83;;
20559;SDS011;10438;51.454;6.718;2023-04-01T02:53:04;28.83;;;10.57;;
20559;SDS011;10438;51.454;6.718;2023-04-01T02:55:31;33.33;;;14.00;;
20559;SDS011;10438;51.454;6.718;2023-04-01T02:57:57;39.73;;;15.50;;
20559;SDS011;10438;51.454;6.718;2023-04-01T03:00:22;36.67;;;13.90;;
20559;SDS011;10438;51.454;6.718;2023-04-01T03:02:48;30.37;;;12.60;;
20559;SDS011;10438;51.454;6.718;2023-04-01T03:05:14;34.40;;;14.13;;
20559;SDS011;10438;51.454;6.718;2023-04-01T03:07:39;13.87;;;5.60;;
20559;SDS011;10438;51.454;6.718;2023-04-01T03:10:05;16.43;;;6.90;;
20559;SDS011;10438;51.454;6.718;2023-04-01T03:12:32;7.67;;;3.40;;
20559;SDS011;10438;51.454;6.718;2023-04-01T03:14:57;14.97;;;6.13;;
20559;SDS011;10438;51.454;6.718;2023-04-01T03:17:23;16.50;;;6.53;;
20559;SDS011;10438;51.454;6.718;2023-04-01T03:19:48;7.87;;;3.87;;
20559;SDS011;10438;51.454;6.718;2023-04-01T03:22:14;10.43;;;4.20;;
20559;SDS011;10438;51.454;6.718;2023-04-01T03:24:40;11.40;;;5.00;;
20559;SDS011;10438;51.454;6.718;2023-04-01T03:27:05;14.67;;;7.53;;
20559;SDS011;10438;51.454;6.718;2023-04-01T03:29:31;17.60;;;7.70;;
20559;SDS011;10438;51.454;6.718;2023-04-01T03:31:56;17.33;;;9.13;;
20559;SDS011;10438;51.454;6.718;2023-04-01T03:34:23;16.33;;;6.93;;
20559;SDS011;10438;51.454;6.718;2023-04-01T03:36:50;12.13;;;6.67;;
20559;SDS011;10438;51.454;6.718;2023-04-01T03:39:16;15.30;;;8.80;;
20559;SDS011;10438;51.454;6.718;2023-04-01T03:41:43;10.20;;;6.77;;
20559;SDS011;10438;51.454;6.718;2023-04-01T03:44:10;13.57;;;7.17;;
20559;SDS011;10438;51.454;6.718;2023-04-01T03:46:35;10.43;;;5.73;;
20559;SDS011;10438;51.454;6.718;2023-04-01T03:49:01;10.13;;;6.60;;
20559;SDS011;10438;51.454;6.718;2023-04-01T03:51:26;15.03;;;8.37;;
20559;SDS011;10438;51.454;6.718;2023-04-01T03:53:52;11.80;;;9.13;;
20559;SDS011;10438;51.454;6.718;2023-04-01T03:56:18;14.83;;;7.87;;
20559;SDS011;10438;51.454;6.718;2023-04-01T03:58:43;10.97;;;7.00;;
20559;SDS011;10438;51.454;6.718;2023-04-01T04:01:16;13.13;;;6.87;;
20559;SDS011;10438;51.454;6.718;2023-04-01T04:03:46;11.67;;;6.63;;
20559;SDS011;10438;51.454;6.718;2023-04-01T04:06:13;15.20;;;7.83;;
20559;SDS011;10438;51.454;6.718;2023-04-01T04:08:39;10.30;;;7.73;;
20559;SDS011;10438;51.454;6.718;2023-04-01T04:11:05;9.43;;;6.07;;
20559;SDS011;10438;51.454;6.718;2023-04-01T04:13:31;11.90;;;8.80;;
20559;SDS011;10438;51.454;6.718;2023-04-01T04:15:57;16.80;;;8.67;;
20559;SDS011;10438;51.454;6.718;2023-04-01T04:18:23;14.17;;;8.90;;
20559;SDS011;10438;51.454;6.718;2023-04-01T04:20:48;9.00;;;6.10;;
20559;SDS011;10438;51.454;6.718;2023-04-01T04:23:15;8.63;;;6.03;;
20559;SDS011;10438;51.454;6.718;2023-04-01T04:25:41;7.77;;;5.23;;
20559;SDS011;10438;51.454;6.718;2023-04-01T04:28:22;6.33;;;4.90;;
20559;SDS011;10438;51.454;6.718;2023-04-01T04:30:47;7.80;;;5.70;;
20559;SDS011;10438;51.454;6.718;2023-04-01T04:33:13;9.63;;;5.83;;
20559;SDS011;10438;51.454;6.718;2023-04-01T04:35:38;6.47;;;4.37;;
20559;SDS011;10438;51.454;6.718;2023-04-01T04:38:04;5.90;;;3.70;;
20559;SDS011;10438;51.454;6.718;2023-04-01T04:40:29;8.83;;;4.90;;
20559;SDS011;10438;51.454;6.718;2023-04-01T04:42:55;6.43;;;4.00;;
20559;SDS011;10438;51.454;6.718;2023-04-01T04:45:20;6.13;;;3.20;;
20559;SDS011;10438;51.454;6.718;2023-04-01T04:47:46;5.87;;;3.23;;
20559;SDS011;10438;51.454;6.718;2023-04-01T04:50:11;8.87;;;4.53;;
20559;SDS011;10438;51.454;6.718;2023-04-01T04:52:37;4.50;;;2.60;;
20559;SDS011;10438;51.454;6.718;2023-04-01T04:55:03;5.63;;;3.20;;
20559;SDS011;10438;51.454;6.718;2023-04-01T04:57:29;5.63;;;3.40;;
20559;SDS011;10438;51.454;6.718;2023-04-01T04:59:54;8.90;;;4.67;;
20559;SDS011;10438;51.454;6.718;2023-04-01T05:02:20;9.27;;;5.40;;
20559;SDS011;10438;51.454;6.718;2023-04-01T05:04:46;7.03;;;4.90;;
20559;SDS011;10438;51.454;6.718;2023-04-01T05:07:11;8.13;;;4.73;;
20559;SDS011;10438;51.454;6.718;2023-04-01T05:09:37;8.47;;;5.57;;
20559;SDS011;10438;51.454;6.718;2023-04-01T05:12:02;9.27;;;6.03;;
20559;SDS011;10438;51.454;6.718;2023-04-01T05:14:28;9.63;;;5.83;;
20559;SDS011;10438;51.454;6.718;2023-04-01T05:16:53;9.03;;;5.37;;
20559;SDS011;10438;51.454;6.718;2023-04-01T05:19:19;10.03;;;6.13;;
20559;SDS011;10438;51.454;6.718;2023-04-01T05:21:45;11.43;;;6.50;;
20559;SDS011;10438;51.454;6.718;2023-04-01T05:24:10;8.73;;;5.70;;
20559;SDS011;10438;51.454;6.718;2023-04-01T05:26:36;9.97;;;6.20;;
20559;SDS011;10438;51.454;6.718;2023-04-01T05:29:02;13.17;;;6.27;;
20559;SDS011;10438;51.454;6.718;2023-04-01T05:31:28;12.00;;;7.57;;
20559;SDS011;10438;51.454;6.718;2023-04-01T05:33:54;10.10;;;4.70;;
20559;SDS011;10438;51.454;6.718;2023-04-01T05:36:20;9.37;;;5.23;;
20559;SDS011;10438;51.454;6.718;2023-04-01T05:38:46;6.90;;;5.20;;
20559;SDS011;10438;51.454;6.718;2023-04-01T05:41:12;6.17;;;4.00;;
20559;SDS011;10438;51.454;6.718;2023-04-01T05:43:39;7.73;;;4.40;;
20559;SDS011;10438;51.454;6.718;2023-04-01T05:46:05;7.63;;;4.60;;
20559;SDS011;10438;51.454;6.718;2023-04-01T05:48:32;6.50;;;4.07;;
20559;SDS011;10438;51.454;6.718;2023-04-01T05:50:59;7.13;;;4.17;;
20559;SDS011;10438;51.454;6.718;2023-04-01T05:53:25;7.97;;;4.67;;
20559;SDS011;10438;51.454;6.718;2023-04-01T05:55:50;6.93;;;4.37;;
20559;SDS011;10438;51.454;6.718;2023-04-01T05:58:16;7.50;;;4.57;;
20559;SDS011;10438;51.454;6.718;2023-04-01T06:00:42;9.40;;;5.10;;
20559;SDS011;10438;51.454;6.718;2023-04-01T06:03:07;7.53;;;4.60;;
20559;SDS011;10438;51.454;6.718;2023-04-01T06:05:40;7.63;;;4.80;;
20559;SDS011;10438;51.454;6.718;2023-04-01T06:08:11;6.93;;;4.57;;
20559;SDS011;10438;51.454;6.718;2023-04-01T06:13:31;7.43;;;5.00;;
20559;SDS011;10438;51.454;6.718;2023-04-01T06:18:40;7.57;;;4.80;;
20559;SDS011;10438;51.454;6.718;2023-04-01T06:27:13;11.63;;;4.53;;
20559;SDS011;10438;51.454;6.718;2023-04-01T06:35:12;8.13;;;5.03;;
20559;SDS011;10438;51.454;6.718;2023-04-01T06:38:20;9.33;;;4.70;;
20559;SDS011;10438;51.454;6.718;2023-04-01T06:45:50;7.77;;;4.63;;
20559;SDS011;10438;51.454;6.718;2023-04-01T06:51:44;9.53;;;5.83;;
20559;SDS011;10438;51.454;6.718;2023-04-01T06:54:36;8.90;;;5.40;;
20559;SDS011;10438;51.454;6.718;2023-04-01T06:57:14;10.27;;;5.47;;
20559;SDS011;10438;51.454;6.718;2023-04-01T07:00:13;9.43;;;5.60;;
20559;SDS011;10438;51.454;6.718;2023-04-01T07:05:18;8.83;;;5.50;;
20559;SDS011;10438;51.454;6.718;2023-04-01T07:07:46;9.17;;;5.60;;
20559;SDS011;10438;51.454;6.718;2023-04-01T07:10:19;8.87;;;5.70;;
20559;SDS011;10438;51.454;6.718;2023-04-01T07:12:50;9.80;;;6.43;;
20559;SDS011;10438;51.454;6.718;2023-04-01T07:15:20;9.30;;;6.20;;
20559;SDS011;10438;51.454;6.718;2023-04-01T07:17:53;10.83;;;6.10;;
20559;SDS011;10438;51.454;6.718;2023-04-01T07:20:23;10.37;;;6.60;;
20559;SDS011;10438;51.454;6.718;2023-04-01T07:23:59;9.17;;;6.33;;
20559;SDS011;10438;51.454;6.718;2023-04-01T07:26:04;10.00;;;6.77;;
20559;SDS011;10438;51.454;6.718;2023-04-01T07:28:53;13.13;;;6.03;;
20559;SDS011;10438;51.454;6.718;2023-04-01T07:42:46;11.47;;;6.80;;
20559;SDS011;10438;51.454;6.718;2023-04-01T07:45:30;12.43;;;6.93;;
20559;SDS011;10438;51.454;6.718;2023-04-01T07:48:06;9.73;;;6.60;;
20559;SDS011;10438;51.454;6.718;2023-04-01T07:53:36;10.57;;;7.27;;
20559;SDS011;10438;51.454;6.718;2023-04-01T07:58:51;11.43;;;7.03;;
20559;SDS011;10438;51.454;6.718;2023-04-01T08:01:40;15.23;;;7.50;;
20559;SDS011;10438;51.454;6.718;2023-04-01T08:04:35;11.90;;;7.30;;
20559;SDS011;10438;51.454;6.718;2023-04-01T08:07:15;11.63;;;7.43;;
20559;SDS011;10438;51.454;6.718;2023-04-01T08:09:58;11.43;;;6.90;;
20559;SDS011;10438;51.454;6.718;2023-04-01T08:17:55;13.97;;;8.53;;
20559;SDS011;10438;51.454;6.718;2023-04-01T08:23:16;12.17;;;6.57;;
20559;SDS011;10438;51.454;6.718;2023-04-01T08:25:53;11.43;;;6.63;;
20559;SDS011;10438;51.454;6.718;2023-04-01T08:28:36;9.67;;;5.80;;
20559;SDS011;10438;51.454;6.718;2023-04-01T08:31:11;11.70;;;6.37;;
20559;SDS011;10438;51.454;6.718;2023-04-01T08:33:41;9.63;;;5.93;;
20559;SDS011;10438;51.454;6.718;2023-04-01T08:36:10;9.90;;;6.43;;
20559;SDS011;10438;51.454;6.718;2023-04-01T08:39:05;10.53;;;5.97;;
20559;SDS011;10438;51.454;6.718;2023-04-01T08:44:21;11.77;;;6.97;;
20559;SDS011;10438;51.454;6.718;2023-04-01T08:52:35;12.40;;;7.20;;
20559;SDS011;10438;51.454;6.718;2023-04-01T08:58:06;12.70;;;7.10;;
20559;SDS011;10438;51.454;6.718;2023-04-01T09:07:40;15.73;;;8.63;;
20559;SDS011;10438;51.454;6.718;2023-04-01T09:10:20;15.30;;;8.40;;
20559;SDS011;10438;51.454;6.718;2023-04-01T09:12:58;14.10;;;8.30;;
20559;SDS011;10438;51.454;6.718;2023-04-01T09:24:31;14.20;;;8.93;;
20559;SDS011;10438;51.454;6.718;2023-04-01T09:33:15;15.77;;;9.87;;
20559;SDS011;10438;51.454;6.718;2023-04-01T09:36:02;16.63;;;9.87;;
20559;SDS011;10438;51.454;6.718;2023-04-01T09:38:43;17.27;;;10.00;;
20559;SDS011;10438;51.454;6.718;2023-04-01T09:44:29;19.33;;;10.43;;
20559;SDS011;10438;51.454;6.718;2023-04-01T09:47:04;16.50;;;10.67;;
20559;SDS011;10438;51.454;6.718;2023-04-01T09:50:10;22.27;;;11.47;;
20559;SDS011;10438;51.454;6.718;2023-04-01T10:04:15;22.57;;;12.70;;
20559;SDS011;10438;51.454;6.718;2023-04-01T10:09:59;17.77;;;11.27;;
20559;SDS011;10438;51.454;6.718;2023-04-01T10:21:25;22.43;;;12.57;;
20559;SDS011;10438;51.454;6.718;2023-04-01T10:37:34;24.43;;;13.57;;
20559;SDS011;10438;51.454;6.718;2023-04-01T10:41:16;21.77;;;13.03;;
20559;SDS011;10438;51.454;6.718;2023-04-01T10:43:49;23.23;;;12.90;;
20559;SDS011;10438;51.454;6.718;2023-04-01T10:46:36;20.57;;;13.73;;
20559;SDS011;10438;51.454;6.718;2023-04-01T10:55:34;26.20;;;13.60;;
20559;SDS011;10438;51.454;6.718;2023-04-01T10:58:17;23.53;;;14.57;;
20559;SDS011;10438;51.454;6.718;2023-04-01T11:03:46;23.17;;;14.83;;
20559;SDS011;10438;51.454;6.718;2023-04-01T11:26:21;29.03;;;14.07;;
20559;SDS011;10438;51.454;6.718;2023-04-01T11:29:27;22.47;;;14.43;;
20559;SDS011;10438;51.454;6.718;2023-04-01T11:40:27;23.80;;;15.37;;
20559;SDS011;10438;51.454;6.718;2023-04-01T11:51:53;25.80;;;15.17;;
20559;SDS011;10438;51.454;6.718;2023-04-01T11:54:49;23.93;;;15.40;;
20559;SDS011;10438;51.454;6.718;2023-04-01T11:57:46;27.13;;;16.07;;
20559;SDS011;10438;51.454;6.718;2023-04-01T12:03:16;23.40;;;14.93;;
20559;SDS011;10438;51.454;6.718;2023-04-01T12:06:38;22.83;;;14.43;;
20559;SDS011;10438;51.454;6.718;2023-04-01T12:11:51;18.63;;;12.97;;
20559;SDS011;10438;51.454;6.718;2023-04-01T12:14:44;22.10;;;14.30;;
20559;SDS011;10438;51.454;6.718;2023-04-01T12:17:34;17.50;;;12.87;;
20559;SDS011;10438;51.454;6.718;2023-04-01T12:20:18;18.43;;;12.30;;
20559;SDS011;10438;51.454;6.718;2023-04-01T12:22:59;18.07;;;11.50;;
20559;SDS011;10438;51.454;6.718;2023-04-01T12:25:59;20.00;;;12.80;;
20559;SDS011;10438;51.454;6.718;2023-04-01T12:31:18;17.23;;;10.63;;
20559;SDS011;10438;51.454;6.718;2023-04-01T12:34:00;20.43;;;11.90;;
20559;SDS011;10438;51.454;6.718;2023-04-01T12:45:00;17.77;;;11.30;;
20559;SDS011;10438;51.454;6.718;2023-04-01T12:47:51;16.40;;;11.33;;
20559;SDS011;10438;51.454;6.718;2023-04-01T12:50:43;20.20;;;10.97;;
20559;SDS011;10438;51.454;6.718;2023-04-01T12:53:48;19.07;;;11.07;;
20559;SDS011;10438;51.454;6.718;2023-04-01T13:02:28;24.43;;;13.27;;
20559;SDS011;10438;51.454;6.718;2023-04-01T13:10:53;22.57;;;12.97;;
20559;SDS011;10438;51.454;6.718;2023-04-01T13:16:11;27.07;;;13.27;;
20559;SDS011;10438;51.454;6.718;2023-04-01T13:18:52;22.30;;;11.63;;
20559;SDS011;10438;51.454;6.718;2023-04-01T13:21:33;26.97;;;12.03;;
20559;SDS011;10438;51.454;6.718;2023-04-01T13:24:18;21.63;;;11.87;;
20559;SDS011;10438;51.454;6.718;2023-04-01T13:29:31;25.27;;;12.67;;
20559;SDS011;10438;51.454;6.718;2023-04-01T13:34:37;27.40;;;12.33;;
20559;SDS011;10438;51.454;6.718;2023-04-01T13:37:15;23.17;;;12.23;;
20559;SDS011;10438;51.454;6.718;2023-04-01T13:42:41;31.03;;;13.03;;
20559;SDS011;10438;51.454;6.718;2023-04-01T13:46:06;22.77;;;12.90;;
20559;SDS011;10438;51.454;6.718;2023-04-01T13:54:25;25.10;;;12.50;;
20559;SDS011;10438;51.454;6.718;2023-04-01T14:00:16;24.27;;;12.93;;
20559;SDS011;10438;51.454;6.718;2023-04-01T14:11:35;18.67;;;11.17;;
20559;SDS011;10438;51.454;6.718;2023-04-01T14:26:30;20.83;;;11.20;;
20559;SDS011;10438;51.454;6.718;2023-04-01T14:29:30;20.73;;;11.67;;
20559;SDS011;10438;51.454;6.718;2023-04-01T14:34:59;18.73;;;10.87;;
20559;SDS011;10438;51.454;6.718;2023-04-01T14:46:16;16.53;;;10.27;;
20559;SDS011;10438;51.454;6.718;2023-04-01T14:51:10;17.83;;;10.83;;
20559;SDS011;10438;51.454;6.718;2023-04-01T14:53:43;21.70;;;11.23;;
20559;SDS011;10438;51.454;6.718;2023-04-01T14:56:43;16.77;;;10.77;;
20559;SDS011;10438;51.454;6.718;2023-04-01T15:13:03;16.60;;;9.90;;
20559;SDS011;10438;51.454;6.718;2023-04-01T15:18:35;19.27;;;10.30;;
20559;SDS011;10438;51.454;6.718;2023-04-01T15:21:13;20.73;;;10.90;;
20559;SDS011;10438;51.454;6.718;2023-04-01T15:30:02;19.17;;;9.70;;
20559;SDS011;10438;51.454;6.718;2023-04-01T15:32:48;17.57;;;8.90;;
20559;SDS011;10438;51.454;6.718;2023-04-01T15:35:49;14.17;;;9.37;;
20559;SDS011;10438;51.454;6.718;2023-04-01T15:43:48;15.27;;;9.23;;
20559;SDS011;10438;51.454;6.718;2023-04-01T15:49:14;15.63;;;9.20;;
20559;SDS011;10438;51.454;6.718;2023-04-01T15:51:58;14.70;;;9.27;;
20559;SDS011;10438;51.454;6.718;2023-04-01T15:57:34;14.83;;;10.10;;
20559;SDS011;10438;51.454;6.718;2023-04-01T16:00:27;16.00;;;9.80;;
20559;SDS011;10438;51.454;6.718;2023-04-01T16:06:17;14.67;;;9.83;;
20559;SDS011;10438;51.454;6.718;2023-04-01T16:08:52;15.13;;;10.27;;
20559;SDS011;10438;51.454;6.718;2023-04-01T16:17:31;14.40;;;9.60;;
20559;SDS011;10438;51.454;6.718;2023-04-01T16:20:25;13.17;;;9.40;;
20559;SDS011;10438;51.454;6.718;2023-04-01T16:23:33;14.73;;;9.50;;
20559;SDS011;10438;51.454;6.718;2023-04-01T16:28:52;15.37;;;9.77;;
20559;SDS011;10438;51.454;6.718;2023-04-01T16:31:32;13.97;;;9.43;;
20559;SDS011;10438;51.454;6.718;2023-04-01T16:34:10;14.07;;;9.63;;
20559;SDS011;10438;51.454;6.718;2023-04-01T16:36:58;17.43;;;10.90;;
20559;SDS011;10438;51.454;6.718;2023-04-01T16:39:47;16.23;;;10.20;;
20559;SDS011;10438;51.454;6.718;2023-04-01T16:45:22;18.00;;;10.93;;
20559;SDS011;10438;51.454;6.718;2023-04-01T16:48:13;18.10;;;10.53;;
20559;SDS011;10438;51.454;6.718;2023-04-01T16:56:39;17.77;;;11.20;;
20559;SDS011;10438;51.454;6.718;2023-04-01T17:01:55;20.17;;;11.37;;
20559;SDS011;10438;51.454;6.718;2023-04-01T17:04:33;20.13;;;12.83;;
20559;SDS011;10438;51.454;6.718;2023-04-01T17:07:15;20.00;;;13.13;;
20559;SDS011;10438;51.454;6.718;2023-04-01T17:12:44;20.33;;;12.53;;
20559;SDS011;10438;51.454;6.718;2023-04-01T17:15:38;21.20;;;13.33;;
20559;SDS011;10438;51.454;6.718;2023-04-01T17:32:46;22.07;;;14.20;;
20559;SDS011;10438;51.454;6.718;2023-04-01T17:49:23;25.90;;;16.23;;
20559;SDS011;10438;51.454;6.718;2023-04-01T17:58:33;26.13;;;16.37;;
20559;SDS011;10438;51.454;6.718;2023-04-01T18:01:17;27.87;;;16.97;;
20559;SDS011;10438;51.454;6.718;2023-04-01T18:04:07;29.17;;;17.47;;
20559;SDS011;10438;51.454;6.718;2023-04-01T18:06:52;28.57;;;16.73;;
20559;SDS011;10438;51.454;6.718;2023-04-01T18:09:49;32.27;;;17.27;;
20559;SDS011;10438;51.454;6.718;2023-04-01T18:12:23;29.30;;;17.33;;
20559;SDS011;10438;51.454;6.718;2023-04-01T18:15:19;28.17;;;17.87;;
20559;SDS011;10438;51.454;6.718;2023-04-01T18:18:05;33.63;;;18.30;;
20559;SDS011;10438;51.454;6.718;2023-04-01T18:23:25;34.70;;;19.37;;
20559;SDS011;10438;51.454;6.718;2023-04-01T18:26:05;30.63;;;18.90;;
20559;SDS011;10438;51.454;6.718;2023-04-01T18:28:38;33.43;;;19.03;;
20559;SDS011;10438;51.454;6.718;2023-04-01T18:31:13;31.33;;;18.77;;
20559;SDS011;10438;51.454;6.718;2023-04-01T18:33:54;29.70;;;18.47;;
20559;SDS011;10438;51.454;6.718;2023-04-01T18:45:01;32.93;;;19.90;;
20559;SDS011;10438;51.454;6.718;2023-04-01T18:52:57;34.43;;;18.70;;
20559;SDS011;10438;51.454;6.718;2023-04-01T18:55:37;29.33;;;18.10;;
20559;SDS011;10438;51.454;6.718;2023-04-01T18:58:18;32.57;;;18.03;;
20559;SDS011;10438;51.454;6.718;2023-04-01T19:06:45;42.57;;;21.30;;
20559;SDS011;10438;51.454;6.718;2023-04-01T19:11:56;31.67;;;16.20;;
20559;SDS011;10438;51.454;6.718;2023-04-01T19:14:38;20.47;;;12.43;;
20559;SDS011;10438;51.454;6.718;2023-04-01T19:17:25;14.93;;;9.73;;
20559;SDS011;10438;51.454;6.718;2023-04-01T19:20:17;33.33;;;21.43;;
20559;SDS011;10438;51.454;6.718;2023-04-01T19:22:49;12.30;;;8.53;;
20559;SDS011;10438;51.454;6.718;2023-04-01T19:25:48;11.60;;;7.40;;
20559;SDS011;10438;51.454;6.718;2023-04-01T19:28:40;12.97;;;8.20;;
20559;SDS011;10438;51.454;6.718;2023-04-01T19:31:24;13.33;;;8.40;;
20559;SDS011;10438;51.454;6.718;2023-04-01T19:34:07;12.57;;;7.30;;
20559;SDS011;10438;51.454;6.718;2023-04-01T19:36:48;12.63;;;7.13;;
20559;SDS011;10438;51.454;6.718;2023-04-01T19:39:30;11.67;;;6.70;;
20559;SDS011;10438;51.454;6.718;2023-04-01T19:42:09;11.90;;;6.50;;
20559;SDS011;10438;51.454;6.718;2023-04-01T19:45:08;8.70;;;5.77;;
20559;SDS011;10438;51.454;6.718;2023-04-01T19:53:07;14.63;;;7.20;;
20559;SDS011;10438;51.454;6.718;2023-04-01T19:56:21;12.43;;;6.80;;
20559;SDS011;10438;51.454;6.718;2023-04-01T20:04:08;8.93;;;5.67;;
20559;SDS011;10438;51.454;6.718;2023-04-01T20:06:44;8.27;;;5.80;;
20559;SDS011;10438;51.454;6.718;2023-04-01T20:12:09;7.50;;;5.13;;
20559;SDS011;10438;51.454;6.718;2023-04-01T20:14:48;7.20;;;5.60;;
20559;SDS011;10438;51.454;6.718;2023-04-01T20:17:23;7.50;;;5.47;;
20559;SDS011;10438;51.454;6.718;2023-04-01T20:25:05;7.50;;;5.80;;
20559;SDS011;10438;51.454;6.718;2023-04-01T20:27:56;7.57;;;5.77;;
20559;SDS011;10438;51.454;6.718;2023-04-01T20:30:57;7.57;;;5.70;;
20559;SDS011;10438;51.454;6.718;2023-04-01T20:46:53;9.60;;;6.80;;
20559;SDS011;10438;51.454;6.718;2023-04-01T20:58:01;9.43;;;6.10;;
20559;SDS011;10438;51.454;6.718;2023-04-01T21:00:42;7.30;;;5.20;;
20559;SDS011;10438;51.454;6.718;2023-04-01T21:03:25;6.90;;;4.83;;
20559;SDS011;10438;51.454;6.718;2023-04-01T21:06:32;6.30;;;3.97;;
20559;SDS011;10438;51.454;6.718;2023-04-01T21:20:10;7.97;;;4.80;;
20559;SDS011;10438;51.454;6.718;2023-04-01T21:22:44;14.90;;;7.30;;
20559;SDS011;10438;51.454;6.718;2023-04-01T21:25:44;10.60;;;6.23;;
20559;SDS011;10438;51.454;6.718;2023-04-01T21:28:42;7.87;;;5.40;;
20559;SDS011;10438;51.454;6.718;2023-04-01T21:53:41;11.63;;;4.97;;
20559;SDS011;10438;51.454;6.718;2023-04-01T21:56:31;8.93;;;5.63;;
20559;SDS011;10438;51.454;6.718;2023-04-01T22:10:49;8.07;;;5.57;;
20559;SDS011;10438;51.454;6.718;2023-04-01T22:13:26;8.93;;;6.40;;
20559;SDS011;10438;51.454;6.718;2023-04-01T22:21:42;9.27;;;6.13;;
20559;SDS011;10438;51.454;6.718;2023-04-01T22:29:53;8.40;;;5.80;;
20559;SDS011;10438;51.454;6.718;2023-04-01T22:32:36;8.93;;;6.23;;
20559;SDS011;10438;51.454;6.718;2023-04-01T22:35:30;8.70;;;5.60;;
20559;SDS011;10438;51.454;6.718;2023-04-01T22:40:42;8.13;;;5.50;;
20559;SDS011;10438;51.454;6.718;2023-04-01T22:43:29;7.77;;;5.40;;
20559;SDS011;10438;51.454;6.718;2023-04-01T22:46:16;7.53;;;5.57;;
20559;SDS011;10438;51.454;6.718;2023-04-01T22:48:49;9.97;;;6.00;;
20559;SDS011;10438;51.454;6.718;2023-04-01T22:51:22;8.83;;;6.10;;
20559;SDS011;10438;51.454;6.718;2023-04-01T22:54:11;11.97;;;6.43;;
20559;SDS011;10438;51.454;6.718;2023-04-01T22:56:57;8.70;;;6.63;;
20559;SDS011;10438;51.454;6.718;2023-04-01T22:59:58;10.30;;;6.47;;
20559;SDS011;10438;51.454;6.718;2023-04-01T23:05:35;8.90;;;5.77;;
20559;SDS011;10438;51.454;6.718;2023-04-01T23:11:05;9.77;;;7.07;;
20559;SDS011;10438;51.454;6.718;2023-04-01T23:13:35;8.80;;;6.70;;
20559;SDS011;10438;51.454;6.718;2023-04-01T23:16:04;7.93;;;6.10;;
20559;SDS011;10438;51.454;6.718;2023-04-01T23:29:11;8.30;;;6.10;;
20559;SDS011;10438;51.454;6.718;2023-04-01T23:31:44;8.17;;;5.87;;
20559;SDS011;10438;51.454;6.718;2023-04-01T23:36:43;8.27;;;6.00;;
20559;SDS011;10438;51.454;6.718;2023-04-01T23:39:24;8.57;;;6.17;;
20559;SDS011;10438;51.454;6.718;2023-04-01T23:42:03;8.43;;;5.47;;
20559;SDS011;10438;51.454;6.718;2023-04-01T23:44:31;9.03;;;6.30;;
20559;SDS011;10438;51.454;6.718;2023-04-01T23:46:59;8.57;;;6.00;;
20559;SDS011;10438;51.454;6.718;2023-04-01T23:49:33;9.30;;;6.00;;
20559;SDS011;10438;51.454;6.718;2023-04-01T23:57:19;7.73;;;5.40;;
